sensor_id;sensor_type;location;lat;lon;timestamp;P1;durP1;ratioP1;P2;durP2;ratioP2
15258;SDS011;34462;51.368;12.364;2022-10-16T00:01:43;0.93;;;0.93;;
15258;SDS011;34462;51.368;12.364;2022-10-16T00:04:11;1.40;;;1.20;;
15258;SDS011;34462;51.368;12.364;2022-10-16T00:06:40;1.90;;;1.15;;
15258;SDS011;34462;51.368;12.364;2022-10-16T00:09:09;1.08;;;1.02;;
15258;SDS011;34462;51.368;12.364;2022-10-16T00:11:38;1.30;;;1.00;;
15258;SDS011;34462;51.368;12.364;2022-10-16T00:14:08;0.98;;;0.95;;
15258;SDS011;34462;51.368;12.364;2022-10-16T00:16:38;3.30;;;1.30;;
15258;SDS011;34462;51.368;12.364;2022-10-16T00:19:07;1.40;;;1.30;;
15258;SDS011;34462;51.368;12.364;2022-10-16T00:21:36;1.40;;;1.30;;
15258;SDS011;34462;51.368;12.364;2022-10-16T00:24:05;1.30;;;1.20;;
15258;SDS011;34462;51.368;12.364;2022-10-16T00:26:37;2.10;;;1.50;;
15258;SDS011;34462;51.368;12.364;2022-10-16T00:29:06;1.38;;;1.27;;
15258;SDS011;34462;51.368;12.364;2022-10-16T00:31:35;1.63;;;1.30;;
15258;SDS011;34462;51.368;12.364;2022-10-16T00:34:03;1.33;;;1.23;;
15258;SDS011;34462;51.368;12.364;2022-10-16T00:36:32;1.73;;;1.38;;
15258;SDS011;34462;51.368;12.364;2022-10-16T00:38:59;1.20;;;1.10;;
15258;SDS011;34462;51.368;12.364;2022-10-16T00:41:30;1.55;;;1.10;;
15258;SDS011;34462;51.368;12.364;2022-10-16T00:44:00;1.25;;;1.10;;
15258;SDS011;34462;51.368;12.364;2022-10-16T00:46:32;1.50;;;1.13;;
15258;SDS011;34462;51.368;12.364;2022-10-16T00:49:06;1.35;;;1.10;;
15258;SDS011;34462;51.368;12.364;2022-10-16T00:51:38;1.30;;;1.20;;
15258;SDS011;34462;51.368;12.364;2022-10-16T00:54:10;1.20;;;1.10;;
15258;SDS011;34462;51.368;12.364;2022-10-16T00:56:44;1.23;;;1.13;;
15258;SDS011;34462;51.368;12.364;2022-10-16T00:59:16;1.08;;;0.90;;
15258;SDS011;34462;51.368;12.364;2022-10-16T01:01:50;1.00;;;1.00;;
15258;SDS011;34462;51.368;12.364;2022-10-16T01:04:19;1.20;;;1.10;;
15258;SDS011;34462;51.368;12.364;2022-10-16T01:06:50;1.30;;;1.20;;
15258;SDS011;34462;51.368;12.364;2022-10-16T01:09:29;1.15;;;1.05;;
15258;SDS011;34462;51.368;12.364;2022-10-16T01:12:12;1.30;;;1.20;;
15258;SDS011;34462;51.368;12.364;2022-10-16T01:14:52;1.50;;;1.20;;
15258;SDS011;34462;51.368;12.364;2022-10-16T01:17:27;1.67;;;1.00;;
15258;SDS011;34462;51.368;12.364;2022-10-16T01:20:06;1.38;;;1.27;;
15258;SDS011;34462;51.368;12.364;2022-10-16T01:22:48;1.13;;;1.10;;
15258;SDS011;34462;51.368;12.364;2022-10-16T01:25:37;1.20;;;1.02;;
15258;SDS011;34462;51.368;12.364;2022-10-16T01:28:27;1.20;;;1.10;;
15258;SDS011;34462;51.368;12.364;2022-10-16T01:31:03;1.38;;;1.27;;
15258;SDS011;34462;51.368;12.364;2022-10-16T01:33:33;2.35;;;1.10;;
15258;SDS011;34462;51.368;12.364;2022-10-16T01:36:10;1.67;;;1.10;;
15258;SDS011;34462;51.368;12.364;2022-10-16T01:38:44;2.03;;;1.10;;
15258;SDS011;34462;51.368;12.364;2022-10-16T01:41:19;2.25;;;1.38;;
15258;SDS011;34462;51.368;12.364;2022-10-16T01:43:56;2.50;;;1.40;;
15258;SDS011;34462;51.368;12.364;2022-10-16T01:46:30;3.00;;;1.20;;
15258;SDS011;34462;51.368;12.364;2022-10-16T01:49:01;1.50;;;1.23;;
15258;SDS011;34462;51.368;12.364;2022-10-16T01:51:31;2.13;;;1.17;;
15258;SDS011;34462;51.368;12.364;2022-10-16T01:54:02;1.30;;;1.20;;
15258;SDS011;34462;51.368;12.364;2022-10-16T01:56:35;1.30;;;1.20;;
15258;SDS011;34462;51.368;12.364;2022-10-16T01:59:06;1.20;;;1.10;;
15258;SDS011;34462;51.368;12.364;2022-10-16T02:01:42;2.00;;;1.48;;
15258;SDS011;34462;51.368;12.364;2022-10-16T02:04:17;1.50;;;1.40;;
15258;SDS011;34462;51.368;12.364;2022-10-16T02:06:53;1.40;;;1.27;;
15258;SDS011;34462;51.368;12.364;2022-10-16T02:09:22;1.40;;;1.30;;
15258;SDS011;34462;51.368;12.364;2022-10-16T02:11:51;1.40;;;1.30;;
15258;SDS011;34462;51.368;12.364;2022-10-16T02:14:25;1.60;;;1.50;;
15258;SDS011;34462;51.368;12.364;2022-10-16T02:16:54;2.15;;;1.38;;
15258;SDS011;34462;51.368;12.364;2022-10-16T02:19:22;1.50;;;1.40;;
15258;SDS011;34462;51.368;12.364;2022-10-16T02:21:51;1.58;;;1.23;;
15258;SDS011;34462;51.368;12.364;2022-10-16T02:24:26;1.40;;;1.30;;
15258;SDS011;34462;51.368;12.364;2022-10-16T02:27:02;1.63;;;1.23;;
15258;SDS011;34462;51.368;12.364;2022-10-16T02:29:39;2.60;;;1.25;;
15258;SDS011;34462;51.368;12.364;2022-10-16T02:32:15;1.67;;;1.58;;
15258;SDS011;34462;51.368;12.364;2022-10-16T02:34:48;1.98;;;1.52;;
15258;SDS011;34462;51.368;12.364;2022-10-16T02:37:18;1.75;;;1.65;;
15258;SDS011;34462;51.368;12.364;2022-10-16T02:39:47;1.50;;;1.40;;
15258;SDS011;34462;51.368;12.364;2022-10-16T02:42:15;1.80;;;1.70;;
15258;SDS011;34462;51.368;12.364;2022-10-16T02:44:47;1.70;;;1.13;;
15258;SDS011;34462;51.368;12.364;2022-10-16T02:47:15;1.50;;;1.40;;
15258;SDS011;34462;51.368;12.364;2022-10-16T02:49:43;3.05;;;1.40;;
15258;SDS011;34462;51.368;12.364;2022-10-16T02:52:11;1.35;;;1.25;;
15258;SDS011;34462;51.368;12.364;2022-10-16T02:54:39;1.38;;;1.20;;
15258;SDS011;34462;51.368;12.364;2022-10-16T02:57:07;1.70;;;1.30;;
15258;SDS011;34462;51.368;12.364;2022-10-16T02:59:35;1.48;;;1.10;;
15258;SDS011;34462;51.368;12.364;2022-10-16T03:02:04;1.33;;;1.23;;
15258;SDS011;34462;51.368;12.364;2022-10-16T03:04:33;2.05;;;1.58;;
15258;SDS011;34462;51.368;12.364;2022-10-16T03:07:01;1.55;;;1.45;;
15258;SDS011;34462;51.368;12.364;2022-10-16T03:09:30;3.20;;;1.48;;
15258;SDS011;34462;51.368;12.364;2022-10-16T03:11:58;1.73;;;1.30;;
15258;SDS011;34462;51.368;12.364;2022-10-16T03:14:26;1.98;;;1.38;;
15258;SDS011;34462;51.368;12.364;2022-10-16T03:16:59;1.40;;;1.30;;
15258;SDS011;34462;51.368;12.364;2022-10-16T03:19:28;3.90;;;1.42;;
15258;SDS011;34462;51.368;12.364;2022-10-16T03:21:56;1.30;;;1.20;;
15258;SDS011;34462;51.368;12.364;2022-10-16T03:24:24;2.78;;;1.33;;
15258;SDS011;34462;51.368;12.364;2022-10-16T03:26:52;2.40;;;1.30;;
15258;SDS011;34462;51.368;12.364;2022-10-16T03:29:20;1.58;;;1.40;;
15258;SDS011;34462;51.368;12.364;2022-10-16T03:31:48;1.58;;;1.48;;
15258;SDS011;34462;51.368;12.364;2022-10-16T03:34:16;1.67;;;1.40;;
15258;SDS011;34462;51.368;12.364;2022-10-16T03:36:45;4.18;;;1.40;;
15258;SDS011;34462;51.368;12.364;2022-10-16T03:39:13;1.73;;;1.20;;
15258;SDS011;34462;51.368;12.364;2022-10-16T03:41:41;1.50;;;1.40;;
15258;SDS011;34462;51.368;12.364;2022-10-16T03:44:09;1.38;;;1.17;;
15258;SDS011;34462;51.368;12.364;2022-10-16T03:46:37;1.40;;;1.30;;
15258;SDS011;34462;51.368;12.364;2022-10-16T03:49:05;1.60;;;1.25;;
15258;SDS011;34462;51.368;12.364;2022-10-16T03:51:35;1.50;;;1.20;;
15258;SDS011;34462;51.368;12.364;2022-10-16T03:54:04;1.40;;;1.30;;
15258;SDS011;34462;51.368;12.364;2022-10-16T03:56:32;1.50;;;1.40;;
15258;SDS011;34462;51.368;12.364;2022-10-16T03:59:00;1.70;;;1.20;;
15258;SDS011;34462;51.368;12.364;2022-10-16T04:01:28;1.73;;;1.40;;
15258;SDS011;34462;51.368;12.364;2022-10-16T04:03:56;1.50;;;1.23;;
15258;SDS011;34462;51.368;12.364;2022-10-16T04:06:25;1.60;;;1.40;;
15258;SDS011;34462;51.368;12.364;2022-10-16T04:08:52;1.20;;;1.20;;
15258;SDS011;34462;51.368;12.364;2022-10-16T04:11:22;1.80;;;1.70;;
15258;SDS011;34462;51.368;12.364;2022-10-16T04:13:50;1.98;;;1.75;;
15258;SDS011;34462;51.368;12.364;2022-10-16T04:16:18;2.25;;;1.40;;
15258;SDS011;34462;51.368;12.364;2022-10-16T04:18:46;2.90;;;1.30;;
15258;SDS011;34462;51.368;12.364;2022-10-16T04:21:14;1.35;;;1.25;;
15258;SDS011;34462;51.368;12.364;2022-10-16T04:23:42;1.40;;;1.30;;
15258;SDS011;34462;51.368;12.364;2022-10-16T04:26:10;2.35;;;1.50;;
15258;SDS011;34462;51.368;12.364;2022-10-16T04:28:39;1.48;;;1.38;;
15258;SDS011;34462;51.368;12.364;2022-10-16T04:31:08;1.60;;;1.50;;
15258;SDS011;34462;51.368;12.364;2022-10-16T04:33:36;1.45;;;1.35;;
15258;SDS011;34462;51.368;12.364;2022-10-16T04:36:04;1.55;;;1.35;;
15258;SDS011;34462;51.368;12.364;2022-10-16T04:38:33;3.28;;;1.60;;
15258;SDS011;34462;51.368;12.364;2022-10-16T04:41:01;1.58;;;1.48;;
15258;SDS011;34462;51.368;12.364;2022-10-16T04:43:29;5.32;;;1.80;;
15258;SDS011;34462;51.368;12.364;2022-10-16T04:45:58;1.85;;;1.45;;
15258;SDS011;34462;51.368;12.364;2022-10-16T04:48:27;1.73;;;1.42;;
15258;SDS011;34462;51.368;12.364;2022-10-16T04:50:55;1.75;;;1.63;;
15258;SDS011;34462;51.368;12.364;2022-10-16T04:53:23;1.50;;;1.40;;
15258;SDS011;34462;51.368;12.364;2022-10-16T04:55:51;1.42;;;1.33;;
15258;SDS011;34462;51.368;12.364;2022-10-16T04:58:19;2.58;;;1.50;;
15258;SDS011;34462;51.368;12.364;2022-10-16T05:00:47;2.03;;;1.52;;
15258;SDS011;34462;51.368;12.364;2022-10-16T05:03:17;4.75;;;1.67;;
15258;SDS011;34462;51.368;12.364;2022-10-16T05:05:45;1.50;;;1.40;;
15258;SDS011;34462;51.368;12.364;2022-10-16T05:08:14;1.55;;;1.45;;
15258;SDS011;34462;51.368;12.364;2022-10-16T05:10:44;1.48;;;1.38;;
15258;SDS011;34462;51.368;12.364;2022-10-16T05:13:12;1.50;;;1.40;;
15258;SDS011;34462;51.368;12.364;2022-10-16T05:15:40;1.92;;;1.50;;
15258;SDS011;34462;51.368;12.364;2022-10-16T05:18:08;2.65;;;1.50;;
15258;SDS011;34462;51.368;12.364;2022-10-16T05:20:38;2.33;;;1.58;;
15258;SDS011;34462;51.368;12.364;2022-10-16T05:23:06;1.98;;;1.35;;
15258;SDS011;34462;51.368;12.364;2022-10-16T05:25:36;3.53;;;1.55;;
15258;SDS011;34462;51.368;12.364;2022-10-16T05:28:04;2.60;;;1.50;;
15258;SDS011;34462;51.368;12.364;2022-10-16T05:30:32;1.60;;;1.50;;
15258;SDS011;34462;51.368;12.364;2022-10-16T05:33:00;1.83;;;1.30;;
15258;SDS011;34462;51.368;12.364;2022-10-16T05:35:28;1.60;;;1.50;;
15258;SDS011;34462;51.368;12.364;2022-10-16T05:37:57;1.70;;;1.60;;
15258;SDS011;34462;51.368;12.364;2022-10-16T05:40:25;1.63;;;1.40;;
15258;SDS011;34462;51.368;12.364;2022-10-16T05:42:54;1.58;;;1.45;;
15258;SDS011;34462;51.368;12.364;2022-10-16T05:45:23;2.67;;;1.60;;
15258;SDS011;34462;51.368;12.364;2022-10-16T05:47:51;1.80;;;1.60;;
15258;SDS011;34462;51.368;12.364;2022-10-16T05:50:19;1.55;;;1.45;;
15258;SDS011;34462;51.368;12.364;2022-10-16T05:52:47;1.83;;;1.73;;
15258;SDS011;34462;51.368;12.364;2022-10-16T05:55:16;3.80;;;1.55;;
15258;SDS011;34462;51.368;12.364;2022-10-16T05:57:44;1.55;;;1.45;;
15258;SDS011;34462;51.368;12.364;2022-10-16T06:00:12;2.80;;;1.50;;
15258;SDS011;34462;51.368;12.364;2022-10-16T06:02:41;2.40;;;1.80;;
15258;SDS011;34462;51.368;12.364;2022-10-16T06:05:09;2.83;;;1.90;;
15258;SDS011;34462;51.368;12.364;2022-10-16T06:07:37;2.20;;;1.70;;
15258;SDS011;34462;51.368;12.364;2022-10-16T06:10:05;2.67;;;1.65;;
15258;SDS011;34462;51.368;12.364;2022-10-16T06:12:36;2.50;;;1.70;;
15258;SDS011;34462;51.368;12.364;2022-10-16T06:15:04;2.65;;;1.45;;
15258;SDS011;34462;51.368;12.364;2022-10-16T06:17:33;1.65;;;1.55;;
15258;SDS011;34462;51.368;12.364;2022-10-16T06:20:01;1.70;;;1.60;;
15258;SDS011;34462;51.368;12.364;2022-10-16T06:22:29;1.42;;;1.33;;
15258;SDS011;34462;51.368;12.364;2022-10-16T06:24:57;1.63;;;1.48;;
15258;SDS011;34462;51.368;12.364;2022-10-16T06:27:25;1.55;;;1.45;;
15258;SDS011;34462;51.368;12.364;2022-10-16T06:29:55;1.70;;;1.60;;
15258;SDS011;34462;51.368;12.364;2022-10-16T06:32:23;2.63;;;1.60;;
15258;SDS011;34462;51.368;12.364;2022-10-16T06:34:51;1.65;;;1.55;;
15258;SDS011;34462;51.368;12.364;2022-10-16T06:37:19;1.83;;;1.42;;
15258;SDS011;34462;51.368;12.364;2022-10-16T06:39:48;1.55;;;1.45;;
15258;SDS011;34462;51.368;12.364;2022-10-16T06:42:16;1.58;;;1.48;;
15258;SDS011;34462;51.368;12.364;2022-10-16T06:44:44;1.95;;;1.50;;
15258;SDS011;34462;51.368;12.364;2022-10-16T06:47:13;1.88;;;1.60;;
15258;SDS011;34462;51.368;12.364;2022-10-16T06:49:41;2.13;;;1.50;;
15258;SDS011;34462;51.368;12.364;2022-10-16T06:52:09;3.42;;;2.03;;
15258;SDS011;34462;51.368;12.364;2022-10-16T06:54:37;2.45;;;1.55;;
15258;SDS011;34462;51.368;12.364;2022-10-16T06:57:07;1.85;;;1.50;;
15258;SDS011;34462;51.368;12.364;2022-10-16T06:59:35;2.65;;;1.50;;
15258;SDS011;34462;51.368;12.364;2022-10-16T07:02:03;1.73;;;1.50;;
15258;SDS011;34462;51.368;12.364;2022-10-16T07:04:34;3.00;;;1.60;;
15258;SDS011;34462;51.368;12.364;2022-10-16T07:07:03;2.85;;;1.63;;
15258;SDS011;34462;51.368;12.364;2022-10-16T07:09:34;1.40;;;1.30;;
15258;SDS011;34462;51.368;12.364;2022-10-16T07:12:03;2.35;;;1.30;;
15258;SDS011;34462;51.368;12.364;2022-10-16T07:14:31;2.55;;;1.40;;
15258;SDS011;34462;51.368;12.364;2022-10-16T07:16:59;2.97;;;1.70;;
15258;SDS011;34462;51.368;12.364;2022-10-16T07:19:27;3.15;;;1.60;;
15258;SDS011;34462;51.368;12.364;2022-10-16T07:22:00;2.55;;;1.48;;
15258;SDS011;34462;51.368;12.364;2022-10-16T07:24:29;1.50;;;1.40;;
15258;SDS011;34462;51.368;12.364;2022-10-16T07:26:57;2.58;;;1.42;;
15258;SDS011;34462;51.368;12.364;2022-10-16T07:29:25;1.75;;;1.65;;
15258;SDS011;34462;51.368;12.364;2022-10-16T07:31:53;2.70;;;2.00;;
15258;SDS011;34462;51.368;12.364;2022-10-16T07:34:21;1.45;;;1.25;;
15258;SDS011;34462;51.368;12.364;2022-10-16T07:36:49;4.15;;;1.58;;
15258;SDS011;34462;51.368;12.364;2022-10-16T07:39:19;1.75;;;1.65;;
15258;SDS011;34462;51.368;12.364;2022-10-16T07:41:47;1.50;;;1.40;;
15258;SDS011;34462;51.368;12.364;2022-10-16T07:44:15;1.50;;;1.40;;
15258;SDS011;34462;51.368;12.364;2022-10-16T07:46:43;3.28;;;1.48;;
15258;SDS011;34462;51.368;12.364;2022-10-16T07:49:11;1.75;;;1.23;;
15258;SDS011;34462;51.368;12.364;2022-10-16T07:51:39;1.30;;;1.20;;
15258;SDS011;34462;51.368;12.364;2022-10-16T07:54:07;1.00;;;1.00;;
15258;SDS011;34462;51.368;12.364;2022-10-16T07:56:37;2.20;;;1.30;;
15258;SDS011;34462;51.368;12.364;2022-10-16T07:59:09;1.30;;;1.20;;
15258;SDS011;34462;51.368;12.364;2022-10-16T08:01:38;5.28;;;1.23;;
15258;SDS011;34462;51.368;12.364;2022-10-16T08:04:06;1.20;;;1.10;;
15258;SDS011;34462;51.368;12.364;2022-10-16T08:06:35;2.42;;;1.27;;
15258;SDS011;34462;51.368;12.364;2022-10-16T08:09:04;2.25;;;1.10;;
15258;SDS011;34462;51.368;12.364;2022-10-16T08:11:33;1.60;;;1.00;;
15258;SDS011;34462;51.368;12.364;2022-10-16T08:14:03;2.30;;;1.23;;
15258;SDS011;34462;51.368;12.364;2022-10-16T08:16:31;2.95;;;1.02;;
15258;SDS011;34462;51.368;12.364;2022-10-16T08:18:59;1.15;;;0.80;;
15258;SDS011;34462;51.368;12.364;2022-10-16T08:21:27;1.02;;;1.00;;
15258;SDS011;34462;51.368;12.364;2022-10-16T08:23:55;0.80;;;0.80;;
15258;SDS011;34462;51.368;12.364;2022-10-16T08:26:24;3.58;;;1.10;;
15258;SDS011;34462;51.368;12.364;2022-10-16T08:28:54;1.35;;;1.00;;
15258;SDS011;34462;51.368;12.364;2022-10-16T08:31:24;2.83;;;0.80;;
15258;SDS011;34462;51.368;12.364;2022-10-16T08:33:53;1.38;;;0.68;;
15258;SDS011;34462;51.368;12.364;2022-10-16T08:36:21;0.70;;;0.70;;
15258;SDS011;34462;51.368;12.364;2022-10-16T08:38:49;0.60;;;0.60;;
15258;SDS011;34462;51.368;12.364;2022-10-16T08:41:27;0.55;;;0.55;;
15258;SDS011;34462;51.368;12.364;2022-10-16T08:44:40;0.77;;;0.68;;
15258;SDS011;34462;51.368;12.364;2022-10-16T08:47:44;0.77;;;0.70;;
15258;SDS011;34462;51.368;12.364;2022-10-16T08:50:22;0.77;;;0.77;;
15258;SDS011;34462;51.368;12.364;2022-10-16T08:52:54;0.68;;;0.68;;
15258;SDS011;34462;51.368;12.364;2022-10-16T08:55:28;1.00;;;0.60;;
15258;SDS011;34462;51.368;12.364;2022-10-16T08:58:00;1.45;;;0.73;;
15258;SDS011;34462;51.368;12.364;2022-10-16T09:00:29;2.42;;;0.70;;
15258;SDS011;34462;51.368;12.364;2022-10-16T09:03:03;0.75;;;0.70;;
15258;SDS011;34462;51.368;12.364;2022-10-16T09:05:49;0.70;;;0.70;;
15258;SDS011;34462;51.368;12.364;2022-10-16T09:08:47;1.65;;;0.80;;
15258;SDS011;34462;51.368;12.364;2022-10-16T09:11:36;1.00;;;0.60;;
15258;SDS011;34462;51.368;12.364;2022-10-16T09:14:23;0.60;;;0.50;;
15258;SDS011;34462;51.368;12.364;2022-10-16T09:17:23;0.50;;;0.50;;
15258;SDS011;34462;51.368;12.364;2022-10-16T09:20:12;1.73;;;0.50;;
15258;SDS011;34462;51.368;12.364;2022-10-16T09:22:55;0.57;;;0.52;;
15258;SDS011;34462;51.368;12.364;2022-10-16T09:25:41;1.30;;;0.60;;
15258;SDS011;34462;51.368;12.364;2022-10-16T09:28:13;0.95;;;0.60;;
15258;SDS011;34462;51.368;12.364;2022-10-16T09:30:43;0.60;;;0.60;;
15258;SDS011;34462;51.368;12.364;2022-10-16T09:33:14;1.50;;;0.68;;
15258;SDS011;34462;51.368;12.364;2022-10-16T09:35:48;0.70;;;0.70;;
15258;SDS011;34462;51.368;12.364;2022-10-16T09:38:22;0.50;;;0.45;;
15258;SDS011;34462;51.368;12.364;2022-10-16T09:40:54;0.65;;;0.65;;
15258;SDS011;34462;51.368;12.364;2022-10-16T09:43:30;0.70;;;0.63;;
15258;SDS011;34462;51.368;12.364;2022-10-16T09:46:07;0.50;;;0.50;;
15258;SDS011;34462;51.368;12.364;2022-10-16T09:48:50;0.70;;;0.65;;
15258;SDS011;34462;51.368;12.364;2022-10-16T09:51:25;0.82;;;0.60;;
15258;SDS011;34462;51.368;12.364;2022-10-16T09:53:56;0.90;;;0.90;;
15258;SDS011;34462;51.368;12.364;2022-10-16T09:56:27;2.10;;;1.00;;
15258;SDS011;34462;51.368;12.364;2022-10-16T09:58:59;1.33;;;0.93;;
15258;SDS011;34462;51.368;12.364;2022-10-16T10:01:31;1.25;;;1.15;;
15258;SDS011;34462;51.368;12.364;2022-10-16T10:04:04;0.98;;;0.98;;
15258;SDS011;34462;51.368;12.364;2022-10-16T10:06:36;1.38;;;1.27;;
15258;SDS011;34462;51.368;12.364;2022-10-16T10:09:17;1.55;;;1.13;;
15258;SDS011;34462;51.368;12.364;2022-10-16T10:11:50;1.45;;;1.10;;
15258;SDS011;34462;51.368;12.364;2022-10-16T10:14:22;1.08;;;1.05;;
15258;SDS011;34462;51.368;12.364;2022-10-16T10:17:11;0.70;;;0.70;;
15258;SDS011;34462;51.368;12.364;2022-10-16T10:19:45;2.78;;;0.80;;
15258;SDS011;34462;51.368;12.364;2022-10-16T10:22:24;0.82;;;0.82;;
15258;SDS011;34462;51.368;12.364;2022-10-16T10:24:57;2.00;;;1.10;;
15258;SDS011;34462;51.368;12.364;2022-10-16T10:27:52;1.52;;;1.10;;
15258;SDS011;34462;51.368;12.364;2022-10-16T10:30:44;1.83;;;0.80;;
15258;SDS011;34462;51.368;12.364;2022-10-16T10:33:24;1.02;;;0.90;;
15258;SDS011;34462;51.368;12.364;2022-10-16T10:36:05;0.90;;;0.90;;
15258;SDS011;34462;51.368;12.364;2022-10-16T10:38:49;3.13;;;0.90;;
15258;SDS011;34462;51.368;12.364;2022-10-16T10:41:27;1.00;;;1.00;;
15258;SDS011;34462;51.368;12.364;2022-10-16T10:44:44;1.48;;;0.95;;
15258;SDS011;34462;51.368;12.364;2022-10-16T10:47:44;0.93;;;0.93;;
15258;SDS011;34462;51.368;12.364;2022-10-16T10:50:35;1.17;;;1.08;;
15258;SDS011;34462;51.368;12.364;2022-10-16T10:53:14;1.00;;;1.00;;
15258;SDS011;34462;51.368;12.364;2022-10-16T10:56:15;1.92;;;1.05;;
15258;SDS011;34462;51.368;12.364;2022-10-16T10:59:16;0.90;;;0.90;;
15258;SDS011;34462;51.368;12.364;2022-10-16T11:02:13;0.80;;;0.80;;
15258;SDS011;34462;51.368;12.364;2022-10-16T11:04:57;1.02;;;0.90;;
15258;SDS011;34462;51.368;12.364;2022-10-16T11:07:56;1.45;;;1.08;;
15258;SDS011;34462;51.368;12.364;2022-10-16T11:10:28;1.90;;;1.00;;
15258;SDS011;34462;51.368;12.364;2022-10-16T11:13:16;1.02;;;1.02;;
15258;SDS011;34462;51.368;12.364;2022-10-16T11:15:57;3.33;;;1.48;;
15258;SDS011;34462;51.368;12.364;2022-10-16T11:18:30;1.52;;;1.30;;
15258;SDS011;34462;51.368;12.364;2022-10-16T11:21:13;1.67;;;1.20;;
15258;SDS011;34462;51.368;12.364;2022-10-16T11:23:46;3.17;;;1.45;;
15258;SDS011;34462;51.368;12.364;2022-10-16T11:26:23;1.23;;;1.13;;
15258;SDS011;34462;51.368;12.364;2022-10-16T11:28:59;2.40;;;1.40;;
15258;SDS011;34462;51.368;12.364;2022-10-16T11:31:38;1.35;;;1.25;;
15258;SDS011;34462;51.368;12.364;2022-10-16T11:34:17;1.60;;;1.50;;
15258;SDS011;34462;51.368;12.364;2022-10-16T11:36:53;2.28;;;1.50;;
15258;SDS011;34462;51.368;12.364;2022-10-16T11:39:29;1.33;;;1.23;;
15258;SDS011;34462;51.368;12.364;2022-10-16T11:41:59;1.17;;;1.10;;
15258;SDS011;34462;51.368;12.364;2022-10-16T11:44:44;1.30;;;1.20;;
15258;SDS011;34462;51.368;12.364;2022-10-16T11:47:26;1.27;;;1.27;;
15258;SDS011;34462;51.368;12.364;2022-10-16T11:50:22;1.08;;;1.08;;
15258;SDS011;34462;51.368;12.364;2022-10-16T11:53:00;1.27;;;1.17;;
15258;SDS011;34462;51.368;12.364;2022-10-16T11:55:38;1.30;;;1.20;;
15258;SDS011;34462;51.368;12.364;2022-10-16T11:58:14;1.95;;;1.25;;
15258;SDS011;34462;51.368;12.364;2022-10-16T12:00:55;1.55;;;1.45;;
15258;SDS011;34462;51.368;12.364;2022-10-16T12:03:39;2.33;;;1.38;;
15258;SDS011;34462;51.368;12.364;2022-10-16T12:06:21;1.55;;;1.40;;
15258;SDS011;34462;51.368;12.364;2022-10-16T12:08:58;2.65;;;1.40;;
15258;SDS011;34462;51.368;12.364;2022-10-16T12:11:32;1.30;;;1.20;;
15258;SDS011;34462;51.368;12.364;2022-10-16T12:14:18;1.15;;;1.15;;
15258;SDS011;34462;51.368;12.364;2022-10-16T12:17:27;1.30;;;1.20;;
15258;SDS011;34462;51.368;12.364;2022-10-16T12:20:18;2.35;;;1.27;;
15258;SDS011;34462;51.368;12.364;2022-10-16T12:22:53;1.67;;;1.30;;
15258;SDS011;34462;51.368;12.364;2022-10-16T12:25:25;1.20;;;1.10;;
15258;SDS011;34462;51.368;12.364;2022-10-16T12:27:58;5.10;;;1.20;;
15258;SDS011;34462;51.368;12.364;2022-10-16T12:30:29;1.33;;;1.20;;
15258;SDS011;34462;51.368;12.364;2022-10-16T12:33:03;1.20;;;1.10;;
15258;SDS011;34462;51.368;12.364;2022-10-16T12:35:34;1.08;;;1.08;;
15258;SDS011;34462;51.368;12.364;2022-10-16T12:38:15;1.95;;;1.17;;
15258;SDS011;34462;51.368;12.364;2022-10-16T12:40:47;0.95;;;0.93;;
15258;SDS011;34462;51.368;12.364;2022-10-16T12:43:27;1.15;;;1.05;;
15258;SDS011;34462;51.368;12.364;2022-10-16T12:46:05;1.50;;;1.15;;
15258;SDS011;34462;51.368;12.364;2022-10-16T12:48:52;1.88;;;1.10;;
15258;SDS011;34462;51.368;12.364;2022-10-16T12:51:34;1.15;;;1.05;;
15258;SDS011;34462;51.368;12.364;2022-10-16T12:54:09;1.67;;;0.90;;
15258;SDS011;34462;51.368;12.364;2022-10-16T12:56:45;2.10;;;0.80;;
15258;SDS011;34462;51.368;12.364;2022-10-16T12:59:32;1.42;;;0.90;;
15258;SDS011;34462;51.368;12.364;2022-10-16T13:02:19;1.67;;;0.90;;
15258;SDS011;34462;51.368;12.364;2022-10-16T13:05:16;0.95;;;0.90;;
15258;SDS011;34462;51.368;12.364;2022-10-16T13:07:59;1.10;;;1.00;;
15258;SDS011;34462;51.368;12.364;2022-10-16T13:10:48;1.17;;;1.08;;
15258;SDS011;34462;51.368;12.364;2022-10-16T13:13:37;1.15;;;0.98;;
15258;SDS011;34462;51.368;12.364;2022-10-16T13:16:29;1.08;;;0.90;;
15258;SDS011;34462;51.368;12.364;2022-10-16T13:19:15;1.20;;;1.10;;
15258;SDS011;34462;51.368;12.364;2022-10-16T13:21:59;1.20;;;1.10;;
15258;SDS011;34462;51.368;12.364;2022-10-16T13:24:50;1.70;;;1.20;;
15258;SDS011;34462;51.368;12.364;2022-10-16T13:27:35;1.10;;;1.00;;
15258;SDS011;34462;51.368;12.364;2022-10-16T13:30:15;0.85;;;0.85;;
15258;SDS011;34462;51.368;12.364;2022-10-16T13:32:56;1.25;;;1.15;;
15258;SDS011;34462;51.368;12.364;2022-10-16T13:35:30;1.08;;;0.98;;
15258;SDS011;34462;51.368;12.364;2022-10-16T13:38:08;1.80;;;1.70;;
15258;SDS011;34462;51.368;12.364;2022-10-16T13:40:48;3.20;;;1.58;;
15258;SDS011;34462;51.368;12.364;2022-10-16T13:43:18;1.40;;;1.30;;
15258;SDS011;34462;51.368;12.364;2022-10-16T13:45:55;3.08;;;2.05;;
15258;SDS011;34462;51.368;12.364;2022-10-16T13:48:28;1.98;;;1.30;;
15258;SDS011;34462;51.368;12.364;2022-10-16T13:51:04;1.65;;;1.27;;
15258;SDS011;34462;51.368;12.364;2022-10-16T13:53:40;1.63;;;1.05;;
15258;SDS011;34462;51.368;12.364;2022-10-16T13:56:11;2.65;;;1.50;;
15258;SDS011;34462;51.368;12.364;2022-10-16T13:58:41;2.17;;;1.98;;
15258;SDS011;34462;51.368;12.364;2022-10-16T14:01:15;2.50;;;2.30;;
15258;SDS011;34462;51.368;12.364;2022-10-16T14:03:47;2.70;;;1.90;;
15258;SDS011;34462;51.368;12.364;2022-10-16T14:06:18;1.85;;;1.45;;
15258;SDS011;34462;51.368;12.364;2022-10-16T14:08:57;1.40;;;1.30;;
15258;SDS011;34462;51.368;12.364;2022-10-16T14:11:32;1.85;;;1.65;;
15258;SDS011;34462;51.368;12.364;2022-10-16T14:14:03;1.90;;;1.80;;
15258;SDS011;34462;51.368;12.364;2022-10-16T14:16:32;2.08;;;1.60;;
15258;SDS011;34462;51.368;12.364;2022-10-16T14:19:01;1.60;;;1.50;;
15258;SDS011;34462;51.368;12.364;2022-10-16T14:21:32;1.55;;;1.20;;
15258;SDS011;34462;51.368;12.364;2022-10-16T14:24:11;2.10;;;1.20;;
15258;SDS011;34462;51.368;12.364;2022-10-16T14:26:41;1.67;;;1.58;;
15258;SDS011;34462;51.368;12.364;2022-10-16T14:29:18;1.20;;;1.10;;
15258;SDS011;34462;51.368;12.364;2022-10-16T14:31:53;1.38;;;1.27;;
15258;SDS011;34462;51.368;12.364;2022-10-16T14:34:24;2.20;;;1.20;;
15258;SDS011;34462;51.368;12.364;2022-10-16T14:36:55;1.40;;;1.30;;
15258;SDS011;34462;51.368;12.364;2022-10-16T14:39:26;1.60;;;1.50;;
15258;SDS011;34462;51.368;12.364;2022-10-16T14:41:55;1.48;;;1.38;;
15258;SDS011;34462;51.368;12.364;2022-10-16T14:44:27;1.30;;;1.15;;
15258;SDS011;34462;51.368;12.364;2022-10-16T14:47:06;3.35;;;1.20;;
15258;SDS011;34462;51.368;12.364;2022-10-16T14:49:40;1.15;;;1.05;;
15258;SDS011;34462;51.368;12.364;2022-10-16T14:52:09;1.30;;;1.20;;
15258;SDS011;34462;51.368;12.364;2022-10-16T14:54:40;1.20;;;1.10;;
15258;SDS011;34462;51.368;12.364;2022-10-16T14:57:15;1.25;;;1.15;;
15258;SDS011;34462;51.368;12.364;2022-10-16T14:59:46;1.23;;;1.13;;
15258;SDS011;34462;51.368;12.364;2022-10-16T15:02:18;1.00;;;1.00;;
15258;SDS011;34462;51.368;12.364;2022-10-16T15:04:54;1.33;;;1.00;;
15258;SDS011;34462;51.368;12.364;2022-10-16T15:07:23;1.00;;;1.00;;
15258;SDS011;34462;51.368;12.364;2022-10-16T15:09:53;1.30;;;1.20;;
15258;SDS011;34462;51.368;12.364;2022-10-16T15:12:23;1.10;;;1.00;;